sensor_id;sensor_type;location;lat;lon;timestamp;P1;durP1;ratioP1;P2;durP2;ratioP2
13075;SDS011;6604;52.484;13.330;2022-10-22T07:48:10;20.07;;;12.87;;
13075;SDS011;6604;52.484;13.330;2022-10-22T07:50:37;19.40;;;13.70;;
13075;SDS011;6604;52.484;13.330;2022-10-22T07:53:03;20.60;;;13.13;;
13075;SDS011;6604;52.484;13.330;2022-10-22T07:55:30;20.03;;;12.90;;
13075;SDS011;6604;52.484;13.330;2022-10-22T07:57:56;18.60;;;12.83;;
13075;SDS011;6604;52.484;13.330;2022-10-22T08:00:22;17.10;;;12.90;;
13075;SDS011;6604;52.484;13.330;2022-10-22T08:02:49;20.63;;;13.53;;
13075;SDS011;6604;52.484;13.330;2022-10-22T08:05:17;18.37;;;12.50;;
13075;SDS011;6604;52.484;13.330;2022-10-22T08:07:43;18.40;;;12.77;;
13075;SDS011;6604;52.484;13.330;2022-10-22T08:10:10;17.10;;;11.80;;
13075;SDS011;6604;52.484;13.330;2022-10-22T08:12:36;16.33;;;11.93;;
13075;SDS011;6604;52.484;13.330;2022-10-22T08:15:03;17.33;;;12.50;;
13075;SDS011;6604;52.484;13.330;2022-10-22T08:17:30;15.80;;;11.77;;
13075;SDS011;6604;52.484;13.330;2022-10-22T08:19:56;16.80;;;11.37;;
13075;SDS011;6604;52.484;13.330;2022-10-22T08:22:24;16.83;;;11.70;;
13075;SDS011;6604;52.484;13.330;2022-10-22T08:24:50;19.00;;;12.10;;
13075;SDS011;6604;52.484;13.330;2022-10-22T08:27:17;14.63;;;11.33;;
13075;SDS011;6604;52.484;13.330;2022-10-22T08:29:44;17.30;;;12.07;;
13075;SDS011;6604;52.484;13.330;2022-10-22T08:32:10;15.70;;;11.53;;
13075;SDS011;6604;52.484;13.330;2022-10-22T08:34:37;14.17;;;11.33;;
13075;SDS011;6604;52.484;13.330;2022-10-22T08:37:03;15.13;;;11.33;;
13075;SDS011;6604;52.484;13.330;2022-10-22T08:39:33;16.70;;;11.40;;
13075;SDS011;6604;52.484;13.330;2022-10-22T08:42:02;17.90;;;11.37;;
13075;SDS011;6604;52.484;13.330;2022-10-22T08:44:39;20.53;;;11.97;;
13075;SDS011;6604;52.484;13.330;2022-10-22T08:47:21;20.40;;;14.23;;
13075;SDS011;6604;52.484;13.330;2022-10-22T08:49:51;16.30;;;11.40;;
13075;SDS011;6604;52.484;13.330;2022-10-22T08:52:21;14.87;;;11.70;;
13075;SDS011;6604;52.484;13.330;2022-10-22T08:54:50;15.43;;;11.43;;
13075;SDS011;6604;52.484;13.330;2022-10-22T09:00:10;14.83;;;10.13;;
13075;SDS011;6604;52.484;13.330;2022-10-22T09:02:39;14.57;;;11.30;;
13075;SDS011;6604;52.484;13.330;2022-10-22T09:05:16;14.60;;;10.93;;
13075;SDS011;6604;52.484;13.330;2022-10-22T09:07:46;16.03;;;10.50;;
13075;SDS011;6604;52.484;13.330;2022-10-22T09:10:16;18.03;;;12.80;;
13075;SDS011;6604;52.484;13.330;2022-10-22T09:12:45;18.80;;;12.13;;
13075;SDS011;6604;52.484;13.330;2022-10-22T09:15:12;17.60;;;11.67;;
13075;SDS011;6604;52.484;13.330;2022-10-22T09:17:40;17.13;;;10.73;;
13075;SDS011;6604;52.484;13.330;2022-10-22T09:20:12;15.20;;;11.27;;
13075;SDS011;6604;52.484;13.330;2022-10-22T09:22:42;15.93;;;11.60;;
13075;SDS011;6604;52.484;13.330;2022-10-22T09:25:13;16.47;;;10.93;;
13075;SDS011;6604;52.484;13.330;2022-10-22T09:27:42;18.67;;;11.63;;
13075;SDS011;6604;52.484;13.330;2022-10-22T09:30:10;15.83;;;11.47;;
13075;SDS011;6604;52.484;13.330;2022-10-22T09:32:40;14.13;;;10.63;;
13075;SDS011;6604;52.484;13.330;2022-10-22T09:35:08;15.90;;;11.43;;
13075;SDS011;6604;52.484;13.330;2022-10-22T09:37:35;15.40;;;10.97;;
13075;SDS011;6604;52.484;13.330;2022-10-22T09:40:04;17.87;;;10.57;;
13075;SDS011;6604;52.484;13.330;2022-10-22T09:42:31;33.80;;;24.73;;
13075;SDS011;6604;52.484;13.330;2022-10-22T09:45:02;21.17;;;14.90;;
13075;SDS011;6604;52.484;13.330;2022-10-22T09:47:33;55.43;;;41.47;;
13075;SDS011;6604;52.484;13.330;2022-10-22T09:50:17;21.47;;;14.43;;
13075;SDS011;6604;52.484;13.330;2022-10-22T09:52:45;15.87;;;11.93;;
13075;SDS011;6604;52.484;13.330;2022-10-22T09:55:19;15.03;;;11.10;;
13075;SDS011;6604;52.484;13.330;2022-10-22T09:57:50;16.40;;;11.27;;
13075;SDS011;6604;52.484;13.330;2022-10-22T10:00:19;14.17;;;10.00;;
13075;SDS011;6604;52.484;13.330;2022-10-22T10:02:45;14.30;;;10.57;;
13075;SDS011;6604;52.484;13.330;2022-10-22T10:05:17;14.00;;;10.53;;
13075;SDS011;6604;52.484;13.330;2022-10-22T10:07:43;14.97;;;11.17;;
13075;SDS011;6604;52.484;13.330;2022-10-22T10:10:15;16.90;;;12.30;;
13075;SDS011;6604;52.484;13.330;2022-10-22T10:12:43;18.73;;;14.27;;
13075;SDS011;6604;52.484;13.330;2022-10-22T10:15:12;14.60;;;10.93;;
13075;SDS011;6604;52.484;13.330;2022-10-22T10:17:42;14.90;;;10.17;;
13075;SDS011;6604;52.484;13.330;2022-10-22T10:20:20;17.33;;;10.47;;
13075;SDS011;6604;52.484;13.330;2022-10-22T10:22:51;16.27;;;10.63;;
13075;SDS011;6604;52.484;13.330;2022-10-22T10:25:34;15.20;;;10.53;;
13075;SDS011;6604;52.484;13.330;2022-10-22T10:28:03;15.10;;;10.93;;
13075;SDS011;6604;52.484;13.330;2022-10-22T10:30:39;14.30;;;10.10;;
13075;SDS011;6604;52.484;13.330;2022-10-22T10:33:13;14.20;;;9.80;;
13075;SDS011;6604;52.484;13.330;2022-10-22T10:35:45;14.93;;;11.37;;
13075;SDS011;6604;52.484;13.330;2022-10-22T10:38:20;14.87;;;10.73;;
13075;SDS011;6604;52.484;13.330;2022-10-22T10:40:49;14.40;;;10.70;;
13075;SDS011;6604;52.484;13.330;2022-10-22T10:43:17;17.07;;;11.13;;
13075;SDS011;6604;52.484;13.330;2022-10-22T10:45:51;15.47;;;10.83;;
13075;SDS011;6604;52.484;13.330;2022-10-22T10:48:26;16.83;;;12.13;;
13075;SDS011;6604;52.484;13.330;2022-10-22T10:50:59;18.83;;;11.53;;
13075;SDS011;6604;52.484;13.330;2022-10-22T10:53:32;18.37;;;11.73;;
13075;SDS011;6604;52.484;13.330;2022-10-22T10:56:00;18.90;;;12.13;;
13075;SDS011;6604;52.484;13.330;2022-10-22T10:58:30;14.60;;;11.80;;
13075;SDS011;6604;52.484;13.330;2022-10-22T11:01:04;15.33;;;11.67;;
13075;SDS011;6604;52.484;13.330;2022-10-22T11:03:46;21.60;;;15.77;;
13075;SDS011;6604;52.484;13.330;2022-10-22T11:06:20;21.20;;;15.40;;
13075;SDS011;6604;52.484;13.330;2022-10-22T11:08:49;16.03;;;12.07;;
13075;SDS011;6604;52.484;13.330;2022-10-22T11:11:20;16.60;;;13.10;;
13075;SDS011;6604;52.484;13.330;2022-10-22T11:13:48;18.20;;;12.33;;
13075;SDS011;6604;52.484;13.330;2022-10-22T11:16:18;20.77;;;12.43;;
13075;SDS011;6604;52.484;13.330;2022-10-22T11:18:48;17.03;;;11.60;;
13075;SDS011;6604;52.484;13.330;2022-10-22T11:21:18;17.97;;;12.80;;
13075;SDS011;6604;52.484;13.330;2022-10-22T11:23:48;15.53;;;12.17;;
13075;SDS011;6604;52.484;13.330;2022-10-22T11:26:18;16.83;;;11.70;;
13075;SDS011;6604;52.484;13.330;2022-10-22T11:28:48;19.00;;;13.50;;
13075;SDS011;6604;52.484;13.330;2022-10-22T11:31:16;20.27;;;13.27;;
13075;SDS011;6604;52.484;13.330;2022-10-22T11:33:44;14.77;;;12.30;;
13075;SDS011;6604;52.484;13.330;2022-10-22T11:36:14;17.43;;;12.07;;
13075;SDS011;6604;52.484;13.330;2022-10-22T11:38:44;18.93;;;11.47;;
13075;SDS011;6604;52.484;13.330;2022-10-22T11:41:10;17.27;;;12.10;;
13075;SDS011;6604;52.484;13.330;2022-10-22T11:46:34;17.33;;;11.33;;
13075;SDS011;6604;52.484;13.330;2022-10-22T11:49:02;17.27;;;12.13;;
13075;SDS011;6604;52.484;13.330;2022-10-22T11:51:32;16.93;;;11.77;;
13075;SDS011;6604;52.484;13.330;2022-10-22T11:54:00;15.30;;;9.60;;
13075;SDS011;6604;52.484;13.330;2022-10-22T11:56:31;13.37;;;10.00;;
13075;SDS011;6604;52.484;13.330;2022-10-22T11:59:01;12.83;;;10.10;;
13075;SDS011;6604;52.484;13.330;2022-10-22T12:01:28;13.40;;;9.03;;
13075;SDS011;6604;52.484;13.330;2022-10-22T12:04:14;11.87;;;8.97;;
13075;SDS011;6604;52.484;13.330;2022-10-22T12:09:29;14.57;;;7.40;;
13075;SDS011;6604;52.484;13.330;2022-10-22T12:12:02;11.33;;;7.10;;
13075;SDS011;6604;52.484;13.330;2022-10-22T12:14:31;10.43;;;7.03;;
13075;SDS011;6604;52.484;13.330;2022-10-22T12:17:01;15.90;;;7.07;;
13075;SDS011;6604;52.484;13.330;2022-10-22T12:19:28;10.67;;;6.53;;
13075;SDS011;6604;52.484;13.330;2022-10-22T12:21:56;10.63;;;6.03;;
13075;SDS011;6604;52.484;13.330;2022-10-22T12:24:23;9.00;;;6.00;;
13075;SDS011;6604;52.484;13.330;2022-10-22T12:26:52;8.23;;;5.60;;
13075;SDS011;6604;52.484;13.330;2022-10-22T12:29:19;7.33;;;5.20;;
13075;SDS011;6604;52.484;13.330;2022-10-22T12:31:46;6.63;;;5.17;;
13075;SDS011;6604;52.484;13.330;2022-10-22T12:34:13;8.03;;;5.23;;
13075;SDS011;6604;52.484;13.330;2022-10-22T12:36:40;9.37;;;5.60;;
13075;SDS011;6604;52.484;13.330;2022-10-22T12:39:11;7.87;;;5.03;;
13075;SDS011;6604;52.484;13.330;2022-10-22T12:41:38;5.13;;;4.60;;
13075;SDS011;6604;52.484;13.330;2022-10-22T12:44:06;7.13;;;4.47;;
13075;SDS011;6604;52.484;13.330;2022-10-22T12:46:33;8.00;;;5.10;;
13075;SDS011;6604;52.484;13.330;2022-10-22T12:49:00;8.87;;;4.90;;
13075;SDS011;6604;52.484;13.330;2022-10-22T12:51:26;7.43;;;5.03;;
13075;SDS011;6604;52.484;13.330;2022-10-22T12:53:53;9.90;;;7.27;;
13075;SDS011;6604;52.484;13.330;2022-10-22T12:56:21;7.50;;;4.40;;
13075;SDS011;6604;52.484;13.330;2022-10-22T12:58:51;5.73;;;3.93;;
13075;SDS011;6604;52.484;13.330;2022-10-22T13:01:19;6.57;;;4.00;;
13075;SDS011;6604;52.484;13.330;2022-10-22T13:03:46;4.73;;;3.93;;
13075;SDS011;6604;52.484;13.330;2022-10-22T13:06:21;7.50;;;4.43;;
13075;SDS011;6604;52.484;13.330;2022-10-22T13:08:54;4.97;;;4.03;;
13075;SDS011;6604;52.484;13.330;2022-10-22T13:11:21;8.30;;;3.90;;
13075;SDS011;6604;52.484;13.330;2022-10-22T13:13:48;5.23;;;3.80;;
13075;SDS011;6604;52.484;13.330;2022-10-22T13:16:15;6.63;;;3.83;;
13075;SDS011;6604;52.484;13.330;2022-10-22T13:18:43;8.00;;;3.63;;
13075;SDS011;6604;52.484;13.330;2022-10-22T13:21:20;6.87;;;3.00;;
13075;SDS011;6604;52.484;13.330;2022-10-22T13:23:50;6.93;;;3.10;;
13075;SDS011;6604;52.484;13.330;2022-10-22T13:26:17;7.33;;;3.00;;
13075;SDS011;6604;52.484;13.330;2022-10-22T13:28:48;6.63;;;3.10;;
13075;SDS011;6604;52.484;13.330;2022-10-22T13:31:17;4.43;;;3.47;;
13075;SDS011;6604;52.484;13.330;2022-10-22T13:33:45;21.67;;;16.67;;
13075;SDS011;6604;52.484;13.330;2022-10-22T13:36:16;6.53;;;3.30;;
13075;SDS011;6604;52.484;13.330;2022-10-22T13:38:43;5.27;;;2.90;;
13075;SDS011;6604;52.484;13.330;2022-10-22T13:41:20;5.93;;;3.20;;
13075;SDS011;6604;52.484;13.330;2022-10-22T13:43:47;6.20;;;3.70;;
13075;SDS011;6604;52.484;13.330;2022-10-22T13:46:13;7.30;;;3.07;;
13075;SDS011;6604;52.484;13.330;2022-10-22T13:48:40;7.90;;;3.87;;
13075;SDS011;6604;52.484;13.330;2022-10-22T13:51:09;4.43;;;2.93;;
13075;SDS011;6604;52.484;13.330;2022-10-22T13:53:37;12.67;;;5.87;;
13075;SDS011;6604;52.484;13.330;2022-10-22T13:56:03;8.93;;;4.07;;
13075;SDS011;6604;52.484;13.330;2022-10-22T13:58:30;11.20;;;6.30;;
13075;SDS011;6604;52.484;13.330;2022-10-22T14:00:57;6.17;;;3.30;;
13075;SDS011;6604;52.484;13.330;2022-10-22T14:03:24;8.30;;;3.20;;
13075;SDS011;6604;52.484;13.330;2022-10-22T14:05:51;6.70;;;3.10;;
13075;SDS011;6604;52.484;13.330;2022-10-22T14:08:19;5.67;;;2.90;;
13075;SDS011;6604;52.484;13.330;2022-10-22T14:10:47;5.53;;;3.00;;
13075;SDS011;6604;52.484;13.330;2022-10-22T14:13:14;4.57;;;2.67;;
13075;SDS011;6604;52.484;13.330;2022-10-22T14:15:41;5.03;;;2.70;;
13075;SDS011;6604;52.484;13.330;2022-10-22T14:18:08;9.80;;;4.87;;
13075;SDS011;6604;52.484;13.330;2022-10-22T14:20:38;5.40;;;3.70;;
13075;SDS011;6604;52.484;13.330;2022-10-22T14:23:09;11.40;;;3.30;;
13075;SDS011;6604;52.484;13.330;2022-10-22T14:25:40;7.33;;;2.90;;
13075;SDS011;6604;52.484;13.330;2022-10-22T14:28:07;7.70;;;3.13;;
13075;SDS011;6604;52.484;13.330;2022-10-22T14:30:33;5.60;;;3.30;;
13075;SDS011;6604;52.484;13.330;2022-10-22T14:33:00;7.67;;;3.13;;
13075;SDS011;6604;52.484;13.330;2022-10-22T14:35:26;7.23;;;2.93;;
13075;SDS011;6604;52.484;13.330;2022-10-22T14:37:53;5.00;;;2.70;;
13075;SDS011;6604;52.484;13.330;2022-10-22T14:40:19;6.73;;;2.67;;
13075;SDS011;6604;52.484;13.330;2022-10-22T14:42:47;4.67;;;2.90;;
13075;SDS011;6604;52.484;13.330;2022-10-22T14:45:15;6.17;;;3.00;;
13075;SDS011;6604;52.484;13.330;2022-10-22T14:47:42;6.47;;;3.00;;
13075;SDS011;6604;52.484;13.330;2022-10-22T14:50:08;5.37;;;2.63;;
13075;SDS011;6604;52.484;13.330;2022-10-22T14:52:35;7.03;;;3.30;;
13075;SDS011;6604;52.484;13.330;2022-10-22T14:55:01;8.93;;;3.77;;
13075;SDS011;6604;52.484;13.330;2022-10-22T14:57:28;8.23;;;3.57;;
13075;SDS011;6604;52.484;13.330;2022-10-22T14:59:55;4.93;;;3.10;;
13075;SDS011;6604;52.484;13.330;2022-10-22T15:02:22;9.03;;;3.10;;
13075;SDS011;6604;52.484;13.330;2022-10-22T15:04:50;8.80;;;2.93;;
13075;SDS011;6604;52.484;13.330;2022-10-22T15:07:16;4.97;;;3.07;;
13075;SDS011;6604;52.484;13.330;2022-10-22T15:09:44;6.50;;;3.43;;
13075;SDS011;6604;52.484;13.330;2022-10-22T15:12:10;8.57;;;4.40;;
13075;SDS011;6604;52.484;13.330;2022-10-22T15:14:37;7.67;;;3.27;;
13075;SDS011;6604;52.484;13.330;2022-10-22T15:17:04;37.50;;;25.47;;
13075;SDS011;6604;52.484;13.330;2022-10-22T15:19:31;15.70;;;10.90;;
13075;SDS011;6604;52.484;13.330;2022-10-22T15:21:57;9.63;;;5.77;;
13075;SDS011;6604;52.484;13.330;2022-10-22T15:24:23;5.37;;;3.17;;
13075;SDS011;6604;52.484;13.330;2022-10-22T15:26:50;4.73;;;2.73;;
13075;SDS011;6604;52.484;13.330;2022-10-22T15:29:18;12.27;;;4.43;;
13075;SDS011;6604;52.484;13.330;2022-10-22T15:31:45;10.30;;;4.30;;
13075;SDS011;6604;52.484;13.330;2022-10-22T15:34:16;6.70;;;3.60;;
13075;SDS011;6604;52.484;13.330;2022-10-22T15:36:43;7.33;;;3.17;;
13075;SDS011;6604;52.484;13.330;2022-10-22T15:39:09;6.60;;;2.70;;
13075;SDS011;6604;52.484;13.330;2022-10-22T15:41:35;8.43;;;3.10;;
13075;SDS011;6604;52.484;13.330;2022-10-22T15:44:02;6.80;;;3.20;;
13075;SDS011;6604;52.484;13.330;2022-10-22T15:46:29;6.27;;;3.20;;
13075;SDS011;6604;52.484;13.330;2022-10-22T15:48:56;7.83;;;3.10;;
13075;SDS011;6604;52.484;13.330;2022-10-22T15:51:24;7.87;;;3.33;;
13075;SDS011;6604;52.484;13.330;2022-10-22T15:53:51;7.13;;;3.10;;
13075;SDS011;6604;52.484;13.330;2022-10-22T15:56:18;7.00;;;2.83;;
13075;SDS011;6604;52.484;13.330;2022-10-22T15:58:44;7.67;;;3.27;;
13075;SDS011;6604;52.484;13.330;2022-10-22T16:01:11;7.23;;;3.03;;
13075;SDS011;6604;52.484;13.330;2022-10-22T16:03:38;8.17;;;3.20;;
13075;SDS011;6604;52.484;13.330;2022-10-22T16:06:06;7.13;;;3.57;;
13075;SDS011;6604;52.484;13.330;2022-10-22T16:08:34;5.53;;;3.27;;
13075;SDS011;6604;52.484;13.330;2022-10-22T16:11:00;6.93;;;3.23;;
13075;SDS011;6604;52.484;13.330;2022-10-22T16:13:27;6.97;;;3.43;;
13075;SDS011;6604;52.484;13.330;2022-10-22T16:15:53;5.77;;;3.60;;
13075;SDS011;6604;52.484;13.330;2022-10-22T16:18:28;7.87;;;3.37;;
13075;SDS011;6604;52.484;13.330;2022-10-22T16:20:54;7.27;;;3.77;;
13075;SDS011;6604;52.484;13.330;2022-10-22T16:23:20;7.00;;;3.73;;
13075;SDS011;6604;52.484;13.330;2022-10-22T16:25:48;5.47;;;3.13;;
13075;SDS011;6604;52.484;13.330;2022-10-22T16:28:14;10.30;;;3.23;;
13075;SDS011;6604;52.484;13.330;2022-10-22T16:30:41;6.87;;;3.40;;
13075;SDS011;6604;52.484;13.330;2022-10-22T16:33:08;11.37;;;5.53;;
13075;SDS011;6604;52.484;13.330;2022-10-22T16:35:38;14.60;;;5.43;;
13075;SDS011;6604;52.484;13.330;2022-10-22T16:38:04;8.77;;;6.07;;
13075;SDS011;6604;52.484;13.330;2022-10-22T16:40:31;7.87;;;4.77;;
13075;SDS011;6604;52.484;13.330;2022-10-22T16:42:58;7.03;;;4.20;;
13075;SDS011;6604;52.484;13.330;2022-10-22T16:45:25;8.07;;;4.07;;
13075;SDS011;6604;52.484;13.330;2022-10-22T16:47:51;5.03;;;4.00;;
13075;SDS011;6604;52.484;13.330;2022-10-22T16:50:17;7.10;;;4.27;;
13075;SDS011;6604;52.484;13.330;2022-10-22T16:52:44;8.37;;;4.40;;
13075;SDS011;6604;52.484;13.330;2022-10-22T16:55:10;14.97;;;5.07;;
13075;SDS011;6604;52.484;13.330;2022-10-22T16:57:37;6.40;;;4.07;;
13075;SDS011;6604;52.484;13.330;2022-10-22T17:00:06;8.73;;;4.00;;
13075;SDS011;6604;52.484;13.330;2022-10-22T17:02:32;8.93;;;4.40;;
13075;SDS011;6604;52.484;13.330;2022-10-22T17:05:01;10.97;;;4.63;;
13075;SDS011;6604;52.484;13.330;2022-10-22T17:07:27;6.20;;;4.10;;
13075;SDS011;6604;52.484;13.330;2022-10-22T17:09:54;9.47;;;4.00;;
13075;SDS011;6604;52.484;13.330;2022-10-22T17:12:20;8.53;;;4.10;;
13075;SDS011;6604;52.484;13.330;2022-10-22T17:14:46;6.73;;;4.00;;
13075;SDS011;6604;52.484;13.330;2022-10-22T17:17:14;7.03;;;3.93;;
13075;SDS011;6604;52.484;13.330;2022-10-22T17:19:40;7.77;;;4.10;;
13075;SDS011;6604;52.484;13.330;2022-10-22T17:22:07;7.07;;;4.30;;
13075;SDS011;6604;52.484;13.330;2022-10-22T17:24:33;5.37;;;4.27;;
13075;SDS011;6604;52.484;13.330;2022-10-22T17:27:00;6.27;;;4.50;;
13075;SDS011;6604;52.484;13.330;2022-10-22T17:29:27;5.63;;;4.40;;
13075;SDS011;6604;52.484;13.330;2022-10-22T17:31:53;8.47;;;4.80;;
13075;SDS011;6604;52.484;13.330;2022-10-22T17:34:21;11.33;;;5.43;;
13075;SDS011;6604;52.484;13.330;2022-10-22T17:36:47;8.17;;;4.70;;
13075;SDS011;6604;52.484;13.330;2022-10-22T17:39:15;15.33;;;4.50;;
13075;SDS011;6604;52.484;13.330;2022-10-22T17:41:42;10.30;;;4.30;;
13075;SDS011;6604;52.484;13.330;2022-10-22T17:44:10;10.23;;;4.97;;
13075;SDS011;6604;52.484;13.330;2022-10-22T17:46:37;8.67;;;4.60;;
13075;SDS011;6604;52.484;13.330;2022-10-22T17:49:04;8.23;;;5.03;;
13075;SDS011;6604;52.484;13.330;2022-10-22T17:51:32;7.47;;;5.37;;
13075;SDS011;6604;52.484;13.330;2022-10-22T17:53:59;9.20;;;5.10;;
13075;SDS011;6604;52.484;13.330;2022-10-22T17:56:26;10.57;;;5.77;;
13075;SDS011;6604;52.484;13.330;2022-10-22T17:58:53;10.83;;;5.60;;
13075;SDS011;6604;52.484;13.330;2022-10-22T18:01:20;8.87;;;6.20;;
13075;SDS011;6604;52.484;13.330;2022-10-22T18:03:47;9.57;;;6.07;;
13075;SDS011;6604;52.484;13.330;2022-10-22T18:06:14;11.40;;;5.83;;
13075;SDS011;6604;52.484;13.330;2022-10-22T18:08:42;7.70;;;5.10;;
13075;SDS011;6604;52.484;13.330;2022-10-22T18:11:09;11.53;;;5.20;;
13075;SDS011;6604;52.484;13.330;2022-10-22T18:13:36;8.97;;;5.63;;
13075;SDS011;6604;52.484;13.330;2022-10-22T18:16:02;9.10;;;5.37;;
13075;SDS011;6604;52.484;13.330;2022-10-22T18:18:29;11.00;;;5.40;;
13075;SDS011;6604;52.484;13.330;2022-10-22T18:20:55;10.17;;;5.60;;
13075;SDS011;6604;52.484;13.330;2022-10-22T18:23:22;7.73;;;5.57;;
13075;SDS011;6604;52.484;13.330;2022-10-22T18:25:49;7.70;;;5.67;;
13075;SDS011;6604;52.484;13.330;2022-10-22T18:28:16;8.10;;;5.63;;
13075;SDS011;6604;52.484;13.330;2022-10-22T18:30:43;10.17;;;6.07;;
13075;SDS011;6604;52.484;13.330;2022-10-22T18:33:10;6.90;;;5.70;;
13075;SDS011;6604;52.484;13.330;2022-10-22T18:35:37;7.47;;;5.83;;
13075;SDS011;6604;52.484;13.330;2022-10-22T18:38:05;8.43;;;6.10;;
13075;SDS011;6604;52.484;13.330;2022-10-22T18:40:31;8.03;;;5.77;;
13075;SDS011;6604;52.484;13.330;2022-10-22T18:43:01;7.23;;;5.53;;
13075;SDS011;6604;52.484;13.330;2022-10-22T18:45:27;10.57;;;5.80;;
13075;SDS011;6604;52.484;13.330;2022-10-22T18:47:54;5.93;;;5.17;;
13075;SDS011;6604;52.484;13.330;2022-10-22T18:50:20;10.67;;;5.23;;
13075;SDS011;6604;52.484;13.330;2022-10-22T18:52:46;7.47;;;5.13;;
13075;SDS011;6604;52.484;13.330;2022-10-22T18:55:13;8.70;;;5.53;;
13075;SDS011;6604;52.484;13.330;2022-10-22T18:57:39;7.03;;;5.00;;
13075;SDS011;6604;52.484;13.330;2022-10-22T19:00:08;7.33;;;5.13;;
13075;SDS011;6604;52.484;13.330;2022-10-22T19:02:34;8.27;;;5.40;;
13075;SDS011;6604;52.484;13.330;2022-10-22T19:05:02;6.70;;;5.17;;
13075;SDS011;6604;52.484;13.330;2022-10-22T19:07:29;8.90;;;6.20;;
13075;SDS011;6604;52.484;13.330;2022-10-22T19:09:56;9.87;;;5.67;;
13075;SDS011;6604;52.484;13.330;2022-10-22T19:12:23;8.23;;;5.23;;
13075;SDS011;6604;52.484;13.330;2022-10-22T19:14:50;9.23;;;5.60;;
13075;SDS011;6604;52.484;13.330;2022-10-22T19:17:18;6.97;;;5.33;;
13075;SDS011;6604;52.484;13.330;2022-10-22T19:19:45;7.63;;;6.03;;
13075;SDS011;6604;52.484;13.330;2022-10-22T19:22:11;7.83;;;5.03;;
13075;SDS011;6604;52.484;13.330;2022-10-22T19:24:38;7.03;;;4.63;;
13075;SDS011;6604;52.484;13.330;2022-10-22T19:27:04;7.77;;;5.27;;
13075;SDS011;6604;52.484;13.330;2022-10-22T19:29:31;6.90;;;4.37;;
13075;SDS011;6604;52.484;13.330;2022-10-22T19:31:57;7.10;;;5.00;;
13075;SDS011;6604;52.484;13.330;2022-10-22T19:34:25;8.20;;;4.40;;
13075;SDS011;6604;52.484;13.330;2022-10-22T19:36:51;7.23;;;4.80;;
13075;SDS011;6604;52.484;13.330;2022-10-22T19:39:18;7.07;;;4.87;;
13075;SDS011;6604;52.484;13.330;2022-10-22T19:41:45;7.57;;;4.73;;
13075;SDS011;6604;52.484;13.330;2022-10-22T19:44:11;5.77;;;5.10;;
13075;SDS011;6604;52.484;13.330;2022-10-22T19:46:38;6.77;;;5.10;;
13075;SDS011;6604;52.484;13.330;2022-10-22T19:49:04;9.87;;;5.63;;
13075;SDS011;6604;52.484;13.330;2022-10-22T19:51:32;6.83;;;5.10;;
13075;SDS011;6604;52.484;13.330;2022-10-22T19:54:00;7.33;;;5.53;;
13075;SDS011;6604;52.484;13.330;2022-10-22T19:56:26;6.13;;;4.80;;
13075;SDS011;6604;52.484;13.330;2022-10-22T19:58:53;6.83;;;5.23;;
13075;SDS011;6604;52.484;13.330;2022-10-22T20:01:19;9.00;;;5.33;;
13075;SDS011;6604;52.484;13.330;2022-10-22T20:03:46;6.10;;;5.47;;
13075;SDS011;6604;52.484;13.330;2022-10-22T20:06:13;7.20;;;5.17;;
13075;SDS011;6604;52.484;13.330;2022-10-22T20:08:41;7.03;;;5.10;;
13075;SDS011;6604;52.484;13.330;2022-10-22T20:11:08;9.03;;;5.30;;
13075;SDS011;6604;52.484;13.330;2022-10-22T20:13:35;8.73;;;4.87;;
13075;SDS011;6604;52.484;13.330;2022-10-22T20:16:02;6.30;;;4.63;;
13075;SDS011;6604;52.484;13.330;2022-10-22T20:18:28;6.77;;;5.33;;
13075;SDS011;6604;52.484;13.330;2022-10-22T20:20:56;6.23;;;4.73;;
13075;SDS011;6604;52.484;13.330;2022-10-22T20:23:23;7.70;;;5.70;;
13075;SDS011;6604;52.484;13.330;2022-10-22T20:25:50;5.90;;;4.77;;
13075;SDS011;6604;52.484;13.330;2022-10-22T20:28:17;7.33;;;4.80;;
13075;SDS011;6604;52.484;13.330;2022-10-22T20:30:43;8.27;;;4.60;;
13075;SDS011;6604;52.484;13.330;2022-10-22T20:33:10;5.80;;;4.60;;
13075;SDS011;6604;52.484;13.330;2022-10-22T20:35:36;5.13;;;4.63;;
13075;SDS011;6604;52.484;13.330;2022-10-22T20:38:03;9.07;;;4.70;;
13075;SDS011;6604;52.484;13.330;2022-10-22T20:40:30;5.20;;;4.47;;
13075;SDS011;6604;52.484;13.330;2022-10-22T20:42:58;6.37;;;4.20;;
13075;SDS011;6604;52.484;13.330;2022-10-22T20:45:25;8.27;;;4.73;;
13075;SDS011;6604;52.484;13.330;2022-10-22T20:47:51;5.40;;;4.30;;
13075;SDS011;6604;52.484;13.330;2022-10-22T20:50:18;4.43;;;4.00;;
13075;SDS011;6604;52.484;13.330;2022-10-22T20:52:45;5.03;;;4.50;;
13075;SDS011;6604;52.484;13.330;2022-10-22T20:55:11;6.33;;;4.20;;
13075;SDS011;6604;52.484;13.330;2022-10-22T20:57:38;7.37;;;4.17;;
13075;SDS011;6604;52.484;13.330;2022-10-22T21:00:07;5.67;;;4.20;;
13075;SDS011;6604;52.484;13.330;2022-10-22T21:02:33;5.63;;;4.20;;
13075;SDS011;6604;52.484;13.330;2022-10-22T21:05:01;8.57;;;4.70;;
13075;SDS011;6604;52.484;13.330;2022-10-22T21:07:27;5.97;;;3.97;;
13075;SDS011;6604;52.484;13.330;2022-10-22T21:09:53;5.60;;;4.57;;
13075;SDS011;6604;52.484;13.330;2022-10-22T21:12:20;7.27;;;4.20;;
13075;SDS011;6604;52.484;13.330;2022-10-22T21:14:46;7.40;;;3.93;;
13075;SDS011;6604;52.484;13.330;2022-10-22T21:17:14;5.83;;;4.03;;
13075;SDS011;6604;52.484;13.330;2022-10-22T21:19:40;5.00;;;3.77;;
13075;SDS011;6604;52.484;13.330;2022-10-22T21:22:06;8.43;;;3.47;;
13075;SDS011;6604;52.484;13.330;2022-10-22T21:24:33;6.37;;;4.03;;
13075;SDS011;6604;52.484;13.330;2022-10-22T21:26:59;6.33;;;3.87;;
13075;SDS011;6604;52.484;13.330;2022-10-22T21:29:26;5.90;;;3.93;;
13075;SDS011;6604;52.484;13.330;2022-10-22T21:31:53;6.60;;;4.23;;
13075;SDS011;6604;52.484;13.330;2022-10-22T21:34:20;6.80;;;4.33;;
13075;SDS011;6604;52.484;13.330;2022-10-22T21:36:47;5.03;;;3.67;;
13075;SDS011;6604;52.484;13.330;2022-10-22T21:39:13;6.57;;;4.17;;
13075;SDS011;6604;52.484;13.330;2022-10-22T21:41:39;4.97;;;4.37;;
13075;SDS011;6604;52.484;13.330;2022-10-22T21:44:06;10.10;;;4.30;;
13075;SDS011;6604;52.484;13.330;2022-10-22T21:46:32;3.90;;;3.50;;
13075;SDS011;6604;52.484;13.330;2022-10-22T21:49:00;4.90;;;3.77;;
13075;SDS011;6604;52.484;13.330;2022-10-22T21:51:28;8.00;;;4.03;;
13075;SDS011;6604;52.484;13.330;2022-10-22T21:53:55;4.57;;;3.70;;
13075;SDS011;6604;52.484;13.330;2022-10-22T21:56:22;4.70;;;3.70;;
13075;SDS011;6604;52.484;13.330;2022-10-22T21:58:49;4.43;;;4.00;;
13075;SDS011;6604;52.484;13.330;2022-10-22T22:01:15;5.43;;;3.93;;
13075;SDS011;6604;52.484;13.330;2022-10-22T22:03:43;5.57;;;3.30;;
13075;SDS011;6604;52.484;13.330;2022-10-22T22:06:09;5.90;;;3.53;;
13075;SDS011;6604;52.484;13.330;2022-10-22T22:08:37;4.57;;;4.10;;
13075;SDS011;6604;52.484;13.330;2022-10-22T22:11:04;5.37;;;3.47;;
13075;SDS011;6604;52.484;13.330;2022-10-22T22:13:31;5.93;;;3.90;;
13075;SDS011;6604;52.484;13.330;2022-10-22T22:15:58;6.03;;;4.10;;
13075;SDS011;6604;52.484;13.330;2022-10-22T22:18:24;7.10;;;4.00;;
13075;SDS011;6604;52.484;13.330;2022-10-22T22:20:51;8.67;;;4.30;;
13075;SDS011;6604;52.484;13.330;2022-10-22T22:23:17;4.67;;;3.80;;
13075;SDS011;6604;52.484;13.330;2022-10-22T22:25:45;7.93;;;3.97;;
13075;SDS011;6604;52.484;13.330;2022-10-22T22:28:11;8.00;;;4.17;;
13075;SDS011;6604;52.484;13.330;2022-10-22T22:30:37;5.20;;;4.13;;
13075;SDS011;6604;52.484;13.330;2022-10-22T22:33:04;5.90;;;3.90;;
13075;SDS011;6604;52.484;13.330;2022-10-22T22:35:30;8.63;;;4.37;;
13075;SDS011;6604;52.484;13.330;2022-10-22T22:37:57;11.27;;;4.93;;